createdAt,value
2022-12-28T00:01:53.555Z,5.75
2022-12-28T00:04:22.749Z,6.78
2022-12-28T00:06:51.566Z,5.97
2022-12-28T00:09:19.520Z,5.45
2022-12-28T00:11:47.518Z,4.85
2022-12-28T00:14:15.409Z,5.35
2022-12-28T00:16:44.632Z,5.75
2022-12-28T00:19:14.253Z,5.55
2022-12-28T00:21:43.929Z,5.22
2022-12-28T00:24:19.155Z,5.32
2022-12-28T00:26:47.153Z,5.10
2022-12-28T00:29:15.160Z,5.50
2022-12-28T00:31:43.467Z,4.97
2022-12-28T00:34:11.370Z,4.85
2022-12-28T00:37:08.659Z,5.20
2022-12-28T00:39:28.434Z,5.05
2022-12-28T00:41:56.347Z,4.20
2022-12-28T00:44:24.190Z,4.88
2022-12-28T00:46:52.071Z,5.15
2022-12-28T00:49:19.990Z,4.15
2022-12-28T00:51:48.012Z,6.55
2022-12-28T00:54:15.920Z,4.72
2022-12-28T00:56:46.279Z,5.05
2022-12-28T00:59:14.202Z,5.30
2022-12-28T01:01:42.240Z,4.88
2022-12-28T01:04:10.197Z,4.63
2022-12-28T01:06:38.099Z,5.00
2022-12-28T01:09:05.992Z,4.70
2022-12-28T01:11:33.936Z,4.32
2022-12-28T01:14:03.728Z,4.95
2022-12-28T01:16:33.741Z,4.50
2022-12-28T01:19:03.664Z,4.78
2022-12-28T01:21:34.030Z,4.85
2022-12-28T01:24:04.745Z,4.10
2022-12-28T01:26:32.748Z,4.22
2022-12-28T01:29:01.332Z,3.70
2022-12-28T01:31:30.535Z,3.85
2022-12-28T01:33:58.398Z,3.95
2022-12-28T01:36:31.416Z,4.40
2022-12-28T01:39:01.316Z,4.15
2022-12-28T01:41:30.820Z,3.92
2022-12-28T01:44:35.967Z,3.90
2022-12-28T01:47:08.085Z,4.72
2022-12-28T01:49:39.799Z,3.10
2022-12-28T01:52:12.662Z,4.93
2022-12-28T01:54:44.656Z,3.80
2022-12-28T01:57:13.578Z,3.22
2022-12-28T01:59:44.583Z,3.47
2022-12-28T02:02:15.941Z,4.00
2022-12-28T02:04:45.064Z,3.13
2022-12-28T02:07:14.769Z,3.50
2022-12-28T02:09:44.740Z,3.20
2022-12-28T02:12:34.032Z,3.70
2022-12-28T02:15:02.850Z,3.33
2022-12-28T02:17:32.448Z,3.58
2022-12-28T02:20:01.778Z,3.60
2022-12-28T02:23:13.608Z,3.40
2022-12-28T02:26:04.400Z,3.50
2022-12-28T02:29:03.168Z,3.30
2022-12-28T02:31:36.281Z,3.60
2022-12-28T02:34:12.308Z,3.33
2022-12-28T02:36:46.987Z,2.80
2022-12-28T02:39:20.137Z,4.00
2022-12-28T02:41:48.812Z,2.80
2022-12-28T02:44:38.789Z,2.60
2022-12-28T02:47:24.111Z,2.50
2022-12-28T02:50:07.126Z,2.70
2022-12-28T02:52:56.265Z,3.25
2022-12-28T02:55:53.897Z,2.33
2022-12-28T02:58:48.665Z,2.42
2022-12-28T03:01:30.325Z,2.55
2022-12-28T03:04:09.553Z,3.00
2022-12-28T03:07:04.473Z,2.95
2022-12-28T03:09:36.891Z,2.05
2022-12-28T03:12:09.798Z,2.53
2022-12-28T03:14:42.043Z,2.67
2022-12-28T03:17:29.834Z,2.80
2022-12-28T03:20:32.948Z,2.17
2022-12-28T03:23:22.679Z,2.80
2022-12-28T03:26:09.861Z,2.88
2022-12-28T03:28:58.611Z,2.40
2022-12-28T03:34:06.658Z,2.40
2022-12-28T03:36:43.785Z,2.88
2022-12-28T03:39:17.906Z,2.33
2022-12-28T03:41:51.504Z,2.50
2022-12-28T03:44:23.499Z,2.80
2022-12-28T03:46:57.139Z,2.42
2022-12-28T03:49:28.234Z,2.40
2022-12-28T03:51:56.720Z,2.22
2022-12-28T03:54:24.624Z,2.67
2022-12-28T03:56:53.311Z,2.75
2022-12-28T03:59:21.299Z,2.35
2022-12-28T04:01:49.551Z,2.40
2022-12-28T04:04:17.462Z,2.38
2022-12-28T04:06:46.698Z,2.83
2022-12-28T04:09:14.568Z,2.15
2022-12-28T04:11:42.445Z,2.10
2022-12-28T04:14:11.314Z,4.50
2022-12-28T04:16:39.361Z,2.70
2022-12-28T04:19:07.197Z,2.35
2022-12-28T04:21:35.069Z,2.25
2022-12-28T04:24:04.354Z,2.67
2022-12-28T04:26:32.209Z,2.30
2022-12-28T04:29:02.068Z,2.28
2022-12-28T04:31:30.565Z,2.28
2022-12-28T04:33:58.824Z,1.70
2022-12-28T04:36:27.352Z,2.28
2022-12-28T04:38:55.273Z,2.03
2022-12-28T04:41:24.448Z,1.75
2022-12-28T04:43:54.762Z,2.63
2022-12-28T04:46:22.946Z,1.83
2022-12-28T04:48:50.800Z,2.30
2022-12-28T04:51:23.080Z,2.63
2022-12-28T04:53:51.124Z,2.15
2022-12-28T04:56:20.556Z,1.80
2022-12-28T04:58:54.033Z,1.60
2022-12-28T05:01:21.991Z,1.52
2022-12-28T05:03:55.013Z,1.70
2022-12-28T05:06:27.344Z,1.88
2022-12-28T05:08:56.135Z,1.77
2022-12-28T05:11:25.943Z,1.83
2022-12-28T05:13:55.426Z,1.38
2022-12-28T05:16:25.900Z,2.08
2022-12-28T05:18:54.203Z,2.05
2022-12-28T05:21:24.489Z,1.63
2022-12-28T05:23:53.091Z,2.13
2022-12-28T05:26:24.026Z,1.90
2022-12-28T05:28:52.317Z,1.83
2022-12-28T05:31:23.576Z,1.90
2022-12-28T05:33:52.162Z,2.00
2022-12-28T05:36:22.411Z,2.50
2022-12-28T05:38:50.504Z,2.22
2022-12-28T05:41:20.252Z,1.85
2022-12-28T05:43:49.020Z,2.08
2022-12-28T05:46:19.267Z,1.95
2022-12-28T05:48:49.159Z,2.05
2022-12-28T05:51:19.378Z,2.13
2022-12-28T05:53:47.724Z,2.42
2022-12-28T05:56:17.081Z,2.00
2022-12-28T05:58:45.894Z,2.10
2022-12-28T06:01:16.091Z,1.85
2022-12-28T06:03:44.846Z,1.80
2022-12-28T06:06:16.059Z,2.03
2022-12-28T06:08:44.953Z,1.75
2022-12-28T06:11:14.828Z,1.60
2022-12-28T06:13:43.112Z,2.05
2022-12-28T06:16:14.701Z,1.88
2022-12-28T06:18:43.212Z,2.25
2022-12-28T06:21:15.080Z,2.28
2022-12-28T06:23:43.844Z,1.90
2022-12-28T06:26:14.055Z,1.95
2022-12-28T06:28:43.232Z,2.05
2022-12-28T06:31:13.812Z,2.30
2022-12-28T06:33:42.163Z,2.58
2022-12-28T06:36:19.961Z,2.47
2022-12-28T06:38:49.745Z,2.35
2022-12-28T06:41:19.876Z,2.83
2022-12-28T06:43:49.202Z,2.10
2022-12-28T06:46:18.636Z,2.97
2022-12-28T06:48:46.797Z,2.40
2022-12-28T06:51:18.252Z,2.60
2022-12-28T06:53:47.458Z,2.40
2022-12-28T06:56:17.900Z,2.60
2022-12-28T06:58:46.660Z,2.80
2022-12-28T07:01:17.330Z,2.63
2022-12-28T07:03:46.920Z,3.10
2022-12-28T07:06:17.430Z,3.10
2022-12-28T07:08:46.058Z,2.80
2022-12-28T07:11:16.271Z,3.00
2022-12-28T07:13:44.170Z,3.03
2022-12-28T07:16:14.489Z,2.78
2022-12-28T07:18:43.206Z,2.85
2022-12-28T07:21:13.935Z,2.65
2022-12-28T07:23:43.481Z,3.35
2022-12-28T07:26:14.007Z,2.55
2022-12-28T07:28:43.832Z,2.47
2022-12-28T07:31:13.876Z,3.20
2022-12-28T07:33:41.824Z,2.95
2022-12-28T07:36:12.334Z,2.50
2022-12-28T07:38:40.419Z,2.55
2022-12-28T07:41:11.926Z,2.22
2022-12-28T07:43:39.990Z,2.78
2022-12-28T07:46:10.827Z,3.15
2022-12-28T07:48:40.399Z,2.67
2022-12-28T07:51:10.511Z,2.22
2022-12-28T07:53:38.976Z,2.97
2022-12-28T07:56:08.872Z,2.15
2022-12-28T07:58:37.279Z,2.60
2022-12-28T08:01:07.330Z,2.55
2022-12-28T08:03:35.464Z,2.22
2022-12-28T08:06:04.995Z,2.72
2022-12-28T08:08:34.910Z,2.30
2022-12-28T08:11:04.999Z,2.72
2022-12-28T08:13:36.926Z,2.20
2022-12-28T08:16:05.920Z,2.25
2022-12-28T08:18:34.407Z,1.90
2022-12-28T08:21:03.645Z,2.00
2022-12-28T08:23:32.157Z,1.88
2022-12-28T08:26:06.633Z,2.67
2022-12-28T08:28:37.031Z,1.90
2022-12-28T08:31:08.941Z,1.88
2022-12-28T08:33:37.150Z,1.70
2022-12-28T08:36:05.809Z,2.17
2022-12-28T08:38:34.071Z,2.10
2022-12-28T08:41:04.595Z,2.22
2022-12-28T08:43:33.215Z,1.67
2022-12-28T08:46:04.154Z,1.92
2022-12-28T08:48:32.617Z,2.90
2022-12-28T08:51:02.935Z,2.03
2022-12-28T08:53:30.858Z,1.85
2022-12-28T08:56:06.835Z,1.60
2022-12-28T08:58:35.414Z,2.38
2022-12-28T09:01:12.543Z,1.52
2022-12-28T09:03:42.170Z,1.83
2022-12-28T09:06:12.122Z,1.63
2022-12-28T09:08:42.334Z,1.67
2022-12-28T09:11:12.204Z,1.55
2022-12-28T09:13:40.550Z,1.50
2022-12-28T09:16:11.543Z,1.40
2022-12-28T09:18:40.793Z,1.83
2022-12-28T09:21:10.581Z,1.33
2022-12-28T09:23:38.682Z,1.40
2022-12-28T09:26:08.291Z,1.25
2022-12-28T09:28:36.199Z,1.42
2022-12-28T09:31:05.227Z,1.70
2022-12-28T09:34:33.814Z,1.45
2022-12-28T09:36:42.862Z,1.60
2022-12-28T09:39:13.723Z,1.92
2022-12-28T09:41:48.313Z,1.42
2022-12-28T09:44:41.388Z,2.10
2022-12-28T09:47:23.297Z,1.63
2022-12-28T09:50:08.406Z,1.52
2022-12-28T09:52:38.370Z,1.40
2022-12-28T09:55:14.053Z,1.42
2022-12-28T09:57:46.382Z,1.83
2022-12-28T10:00:19.101Z,1.75
2022-12-28T10:02:53.078Z,1.33
2022-12-28T10:05:23.532Z,1.73
2022-12-28T10:07:53.939Z,2.28
2022-12-28T10:10:24.016Z,2.42
2022-12-28T10:12:52.814Z,1.85
2022-12-28T10:15:22.309Z,1.67
2022-12-28T10:17:50.229Z,1.50
2022-12-28T10:20:20.108Z,1.40
2022-12-28T10:22:52.343Z,1.73
2022-12-28T10:25:21.943Z,1.02
2022-12-28T10:27:50.599Z,1.40
2022-12-28T10:30:20.346Z,1.50
2022-12-28T10:33:01.420Z,1.75
2022-12-28T10:35:34.060Z,1.23
2022-12-28T10:38:07.440Z,1.65
2022-12-28T10:40:38.280Z,0.90
2022-12-28T10:43:11.081Z,1.25
2022-12-28T10:45:42.637Z,1.23
2022-12-28T10:48:16.233Z,1.10
2022-12-28T10:50:50.932Z,1.10
2022-12-28T10:53:26.378Z,1.17
2022-12-28T10:56:17.861Z,1.10
2022-12-28T10:58:47.246Z,1.30
2022-12-28T11:01:19.720Z,1.60
2022-12-28T11:04:00.560Z,1.33
2022-12-28T11:06:30.034Z,1.38
2022-12-28T11:09:14.925Z,1.02
2022-12-28T11:11:43.911Z,1.10
2022-12-28T11:14:18.908Z,1.40
2022-12-28T11:16:46.940Z,1.58
2022-12-28T11:19:14.829Z,1.27
2022-12-28T11:21:44.152Z,1.33
2022-12-28T11:24:15.796Z,1.27
2022-12-28T11:26:45.278Z,1.42
2022-12-28T11:29:16.836Z,1.23
2022-12-28T11:31:49.364Z,1.38
2022-12-28T11:34:20.839Z,1.30
2022-12-28T11:36:49.553Z,1.75
2022-12-28T11:39:44.795Z,1.50
2022-12-28T11:42:38.890Z,1.55
2022-12-28T11:45:01.971Z,1.65
2022-12-28T11:47:35.576Z,1.23
2022-12-28T11:50:51.125Z,2.08
2022-12-28T11:53:24.718Z,1.67
2022-12-28T11:56:07.875Z,1.58
2022-12-28T11:59:04.748Z,1.05
2022-12-28T12:01:50.441Z,1.20
2022-12-28T12:04:37.596Z,1.10
2022-12-28T12:07:32.066Z,1.10
2022-12-28T12:10:28.818Z,2.78
2022-12-28T12:12:59.573Z,1.00
2022-12-28T12:15:34.082Z,1.25
2022-12-28T12:18:04.285Z,1.35
2022-12-28T12:20:45.827Z,1.30
2022-12-28T12:23:24.529Z,1.13
2022-12-28T12:25:54.634Z,1.30
2022-12-28T12:28:35.962Z,1.50
2022-12-28T12:31:08.027Z,1.50
2022-12-28T12:33:38.303Z,1.50
2022-12-28T12:36:22.163Z,1.52
2022-12-28T12:39:31.674Z,1.48
2022-12-28T12:42:09.891Z,1.73
2022-12-28T12:47:57.274Z,1.40
2022-12-28T12:50:38.007Z,1.73
2022-12-28T12:53:17.261Z,1.48
2022-12-28T12:55:59.632Z,1.65
2022-12-28T12:58:33.549Z,1.70
2022-12-28T13:01:29.108Z,1.55
2022-12-28T13:04:00.754Z,1.60
2022-12-28T13:06:31.746Z,1.58
2022-12-28T13:09:05.775Z,1.73
2022-12-28T13:11:38.441Z,1.73
2022-12-28T13:14:07.523Z,1.50
2022-12-28T13:16:37.063Z,1.83
2022-12-28T13:19:07.363Z,1.67
2022-12-28T13:21:42.702Z,1.48
2022-12-28T13:24:20.684Z,1.85
2022-12-28T13:26:48.732Z,2.03
2022-12-28T13:29:20.182Z,1.83
2022-12-28T13:31:50.636Z,2.70
2022-12-28T13:34:20.822Z,1.55
2022-12-28T13:36:49.864Z,1.50
2022-12-28T13:39:20.643Z,1.80
2022-12-28T13:41:53.361Z,1.83
2022-12-28T13:44:36.336Z,1.92
2022-12-28T13:47:11.995Z,1.70
2022-12-28T13:49:44.488Z,1.95
2022-12-28T13:52:17.599Z,1.45
2022-12-28T13:54:50.344Z,1.70
2022-12-28T14:00:08.883Z,1.75
2022-12-28T14:02:41.774Z,2.30
2022-12-28T14:05:16.466Z,1.65
2022-12-28T14:07:45.107Z,1.70
2022-12-28T14:10:13.546Z,1.70
2022-12-28T14:12:42.249Z,1.60
2022-12-28T14:15:12.414Z,1.58
2022-12-28T14:17:43.346Z,1.98
2022-12-28T14:20:12.140Z,2.40
2022-12-28T14:22:41.865Z,1.50
2022-12-28T14:25:11.794Z,1.65
2022-12-28T14:27:43.599Z,1.88
2022-12-28T14:30:24.733Z,1.90
2022-12-28T14:32:55.136Z,1.83
2022-12-28T14:35:26.116Z,1.80
2022-12-28T14:37:57.439Z,2.00
2022-12-28T14:40:30.433Z,2.10
2022-12-28T14:43:00.097Z,2.40
2022-12-28T14:46:06.991Z,2.13
2022-12-28T14:48:40.484Z,1.85
2022-12-28T14:51:25.410Z,1.63
2022-12-28T14:54:18.480Z,1.65
2022-12-28T14:56:49.699Z,1.50
2022-12-28T14:59:22.410Z,1.75
2022-12-28T15:01:51.101Z,1.80
2022-12-28T15:04:42.931Z,1.67
2022-12-28T15:07:12.777Z,1.92
2022-12-28T15:09:41.950Z,2.22
2022-12-28T15:12:11.905Z,3.40
2022-12-28T15:14:40.008Z,4.40
2022-12-28T15:17:08.934Z,2.40
2022-12-28T15:19:36.883Z,1.85
2022-12-28T15:22:06.773Z,2.05
2022-12-28T15:24:35.081Z,2.00
2022-12-28T15:27:04.071Z,2.10
2022-12-28T15:32:20.506Z,2.08
2022-12-28T15:34:48.862Z,2.38
2022-12-28T15:37:18.775Z,2.10
2022-12-28T15:39:47.241Z,1.92
2022-12-28T15:42:15.119Z,2.28
2022-12-28T15:44:43.595Z,2.00
2022-12-28T15:47:12.190Z,2.08
2022-12-28T15:49:40.949Z,2.08
2022-12-28T15:52:08.957Z,1.98
2022-12-28T15:54:40.348Z,1.92
2022-12-28T15:57:14.172Z,2.10
2022-12-28T15:59:42.615Z,1.90
2022-12-28T16:02:12.453Z,2.17
2022-12-28T16:04:40.521Z,2.38
2022-12-28T16:07:08.747Z,2.17
2022-12-28T16:09:38.232Z,2.38
2022-12-28T16:12:07.099Z,2.20
2022-12-28T16:14:35.578Z,1.85
2022-12-28T16:17:03.589Z,2.00
2022-12-28T16:19:32.029Z,2.42
2022-12-28T16:22:00.141Z,1.77
2022-12-28T16:24:29.025Z,2.65
2022-12-28T16:26:58.310Z,2.42
2022-12-28T16:29:26.555Z,2.47
2022-12-28T16:31:55.424Z,2.00
2022-12-28T16:34:23.425Z,2.30
2022-12-28T16:36:56.792Z,2.30
2022-12-28T16:39:25.087Z,1.90
2022-12-28T16:41:53.019Z,2.30
2022-12-28T16:44:25.069Z,2.05
2022-12-28T16:46:54.417Z,2.20
2022-12-28T16:49:22.370Z,2.70
2022-12-28T16:51:50.728Z,2.40
2022-12-28T16:54:20.182Z,2.60
2022-12-28T16:56:49.822Z,1.70
2022-12-28T16:59:19.679Z,2.17
2022-12-28T17:01:49.599Z,1.90
2022-12-28T17:04:18.123Z,2.35
2022-12-28T17:06:47.596Z,2.33
2022-12-28T17:09:16.089Z,2.08
2022-12-28T17:11:44.091Z,2.05
2022-12-28T17:14:15.228Z,1.77
2022-12-28T17:16:45.439Z,1.95
2022-12-28T17:19:14.894Z,2.17
2022-12-28T17:21:42.774Z,2.15
2022-12-28T17:24:10.644Z,2.20
2022-12-28T17:26:38.652Z,2.03
2022-12-28T17:29:06.534Z,2.13
2022-12-28T17:31:34.852Z,2.38
2022-12-28T17:34:03.732Z,2.30
2022-12-28T17:36:32.910Z,2.88
2022-12-28T17:39:00.765Z,2.10
2022-12-28T17:41:29.090Z,2.08
2022-12-28T17:43:58.689Z,2.50
2022-12-28T17:46:29.272Z,1.95
2022-12-28T17:48:59.640Z,2.63
2022-12-28T17:51:29.339Z,2.55
2022-12-28T17:53:58.713Z,3.10
2022-12-28T17:56:27.281Z,2.20
2022-12-28T17:58:57.128Z,2.65
2022-12-28T18:01:26.266Z,2.00
2022-12-28T18:03:54.415Z,2.65
2022-12-28T18:06:22.470Z,1.83
2022-12-28T18:08:50.326Z,2.03
2022-12-28T18:11:19.487Z,1.98
2022-12-28T18:13:48.448Z,2.47
2022-12-28T18:16:18.911Z,2.25
2022-12-28T18:18:47.374Z,2.42
2022-12-28T18:21:21.744Z,2.20
2022-12-28T18:23:51.559Z,2.33
2022-12-28T18:26:22.193Z,2.30
2022-12-28T18:28:50.092Z,2.42
2022-12-28T18:31:18.000Z,2.90
2022-12-28T18:33:45.889Z,2.53
2022-12-28T18:36:17.760Z,3.10
2022-12-28T18:38:47.542Z,2.70
2022-12-28T18:41:17.598Z,2.65
2022-12-28T18:43:46.800Z,2.55
2022-12-28T18:46:14.748Z,2.38
2022-12-28T18:48:43.070Z,2.20
2022-12-28T18:51:12.689Z,2.28
2022-12-28T18:53:40.842Z,2.50
2022-12-28T18:56:11.344Z,2.72
2022-12-28T18:58:40.838Z,2.60
2022-12-28T19:01:32.923Z,2.30
2022-12-28T19:04:02.012Z,2.38
2022-12-28T19:06:30.299Z,1.98
2022-12-28T19:09:00.992Z,3.17
2022-12-28T19:11:29.250Z,2.40
2022-12-28T19:13:57.097Z,2.58
2022-12-28T19:16:31.650Z,2.20
2022-12-28T19:19:00.131Z,2.40
2022-12-28T19:21:30.596Z,2.13
2022-12-28T19:24:03.423Z,2.60
2022-12-28T19:26:33.419Z,2.35
2022-12-28T19:29:03.093Z,2.50
2022-12-28T19:31:33.470Z,3.00
2022-12-28T19:34:01.471Z,2.40
2022-12-28T19:36:29.384Z,2.50
2022-12-28T19:38:57.974Z,2.40
2022-12-28T19:41:26.434Z,2.20
2022-12-28T19:43:54.793Z,2.33
2022-12-28T19:46:31.400Z,2.72
2022-12-28T19:49:03.974Z,2.47
2022-12-28T19:51:33.259Z,2.05
2022-12-28T19:54:01.607Z,2.50
2022-12-28T19:56:30.091Z,2.72
2022-12-28T19:59:05.591Z,3.00
2022-12-28T20:01:35.729Z,2.78
2022-12-28T20:04:12.912Z,2.28
2022-12-28T20:06:41.960Z,2.72
2022-12-28T20:09:10.518Z,2.67
2022-12-28T20:11:38.811Z,2.47
2022-12-28T20:14:07.585Z,2.85
2022-12-28T20:16:36.435Z,2.90
2022-12-28T20:19:08.762Z,2.22
2022-12-28T20:21:38.452Z,2.65
2022-12-28T20:24:07.720Z,2.10
2022-12-28T20:26:36.103Z,2.67
2022-12-28T20:29:05.315Z,2.60
2022-12-28T20:31:34.013Z,2.78
2022-12-28T20:34:01.956Z,3.05
2022-12-28T20:36:34.229Z,2.35
2022-12-28T20:39:02.934Z,2.35
2022-12-28T20:41:51.647Z,2.72
2022-12-28T20:44:25.403Z,2.67
2022-12-28T20:46:54.080Z,2.55
2022-12-28T20:49:23.112Z,2.75
2022-12-28T20:51:53.095Z,2.92
2022-12-28T20:54:22.102Z,2.92
2022-12-28T20:56:54.847Z,2.78
2022-12-28T20:59:25.661Z,3.05
2022-12-28T21:01:54.764Z,3.10
2022-12-28T21:04:24.489Z,2.90
2022-12-28T21:06:54.431Z,3.53
2022-12-28T21:09:22.431Z,3.03
2022-12-28T21:11:50.490Z,3.33
2022-12-28T21:14:19.056Z,3.20
2022-12-28T21:16:47.178Z,2.97
2022-12-28T21:19:15.250Z,2.70
2022-12-28T21:21:43.320Z,2.78
2022-12-28T21:24:13.148Z,3.10
2022-12-28T21:26:41.116Z,2.92
2022-12-28T21:29:09.220Z,3.45
2022-12-28T21:31:37.538Z,3.40
2022-12-28T21:34:05.661Z,2.72
2022-12-28T21:36:33.950Z,2.47
2022-12-28T21:39:02.338Z,2.47
2022-12-28T21:41:49.641Z,3.10
2022-12-28T21:44:20.732Z,2.90
2022-12-28T21:46:50.901Z,2.50
2022-12-28T21:49:19.523Z,2.38
2022-12-28T21:51:47.411Z,2.90
2022-12-28T21:54:17.626Z,2.70
2022-12-28T21:56:49.996Z,2.42
2022-12-28T21:59:17.856Z,1.95
2022-12-28T22:02:03.467Z,1.90
2022-12-28T22:04:48.984Z,2.15
2022-12-28T22:07:19.579Z,2.60
2022-12-28T22:10:05.661Z,2.53
2022-12-28T22:12:37.935Z,2.10
2022-12-28T22:15:27.233Z,2.20
2022-12-28T22:17:57.173Z,2.28
2022-12-28T22:20:25.980Z,2.25
2022-12-28T22:22:57.620Z,2.20
2022-12-28T22:25:26.771Z,2.42
2022-12-28T22:27:56.073Z,2.35
2022-12-28T22:30:24.219Z,2.00
2022-12-28T22:32:52.160Z,2.15
2022-12-28T22:35:20.750Z,1.83
2022-12-28T22:37:49.040Z,2.15
2022-12-28T22:40:17.828Z,2.17
2022-12-28T22:42:47.966Z,2.58
2022-12-28T22:45:19.361Z,1.95
2022-12-28T22:47:48.031Z,2.00
2022-12-28T22:50:18.226Z,1.95
2022-12-28T22:52:46.574Z,3.25
2022-12-28T22:55:14.636Z,2.83
2022-12-28T22:57:42.623Z,2.30
2022-12-28T23:00:14.256Z,2.40
2022-12-28T23:02:43.700Z,1.80
2022-12-28T23:05:11.946Z,2.10
2022-12-28T23:07:40.038Z,2.10
2022-12-28T23:10:10.256Z,2.50
2022-12-28T23:12:39.139Z,1.52
2022-12-28T23:15:16.431Z,1.85
2022-12-28T23:17:46.457Z,2.07
2022-12-28T23:20:32.135Z,1.92
2022-12-28T23:23:17.781Z,1.70
2022-12-28T23:26:03.473Z,2.00
2022-12-28T23:28:31.417Z,2.58
2022-12-28T23:30:59.782Z,1.95
2022-12-28T23:33:29.438Z,2.00
2022-12-28T23:35:57.291Z,2.28
2022-12-28T23:38:25.731Z,2.35
2022-12-28T23:41:13.724Z,1.80
2022-12-28T23:43:42.197Z,2.30
2022-12-28T23:46:10.646Z,1.83
2022-12-28T23:48:39.907Z,1.95
2022-12-28T23:51:08.888Z,2.47
2022-12-28T23:53:36.810Z,1.73
2022-12-28T23:56:04.843Z,1.90
2022-12-28T23:58:32.754Z,1.92
